Time;durP1;ratioP1;P1;durP2;ratioP2;P2;SDS_P1;SDS_P2;PMS_P1;PMS_P2;Temp;Humidity;BMP_temperature;BMP_pressure;BME280_temperature;BME280_humidity;BME280_pressure;Samples;Min_cycle;Max_cycle;Signal;HPM_P1;HPM_P2
2023/08/05 00:00:42;;;;;;;5.30;1.95;;;;;;;23.93;46.63;101450.59;5040919;28;20056;-64
2023/08/05 00:03:07;;;;;;;3.63;2.17;;;;;;;23.89;46.70;101443.84;5041002;28;20091;-64
2023/08/05 00:05:32;;;;;;;1.52;1.30;;;;;;;23.85;46.52;101448.00;5039279;28;20382;-64
2023/08/05 00:07:58;;;;;;;1.98;1.77;;;;;;;23.85;45.96;101442.53;5040628;28;20037;-63
2023/08/05 00:10:23;;;;;;;2.55;1.75;;;;;;;23.84;46.70;101440.88;5038832;28;20096;-65
2023/08/05 00:12:48;;;;;;;5.38;2.20;;;;;;;23.82;46.40;101441.06;5024934;28;20528;-65
2023/08/05 00:15:14;;;;;;;4.18;1.73;;;;;;;23.86;46.54;101444.25;5041853;28;20080;-65
2023/08/05 00:17:39;;;;;;;2.88;1.70;;;;;;;23.84;46.73;101436.25;5039768;28;20037;-65
2023/08/05 00:20:07;;;;;;;3.85;1.77;;;;;;;23.83;47.02;101428.22;5023824;28;20520;-65
2023/08/05 00:22:33;;;;;;;2.60;1.67;;;;;;;23.87;46.79;101435.00;5048487;28;20500;-66
2023/08/05 00:24:58;;;;;;;2.00;1.77;;;;;;;23.86;46.69;101436.03;5050990;28;20044;-65
2023/08/05 00:27:24;;;;;;;6.40;2.97;;;;;;;23.84;47.24;101429.91;5034166;28;20083;-65
2023/08/05 00:29:49;;;;;;;5.18;1.55;;;;;;;23.85;46.25;101431.59;5050966;28;20564;-65
2023/08/05 00:32:15;;;;;;;3.53;1.67;;;;;;;23.87;46.31;101429.53;5036636;28;20090;-65
2023/08/05 00:34:40;;;;;;;7.28;2.13;;;;;;;23.88;46.99;101428.47;5055749;28;20471;-66
2023/08/05 00:37:06;;;;;;;4.35;2.08;;;;;;;23.86;46.92;101423.19;5030642;28;20409;-65
2023/08/05 00:39:31;;;;;;;5.55;2.55;;;;;;;23.86;46.84;101416.88;5051146;28;20045;-65
2023/08/05 00:41:56;;;;;;;6.85;2.00;;;;;;;23.84;46.61;101403.41;5034354;28;20489;-65
2023/08/05 00:44:23;;;;;;;3.78;1.80;;;;;;;23.85;46.97;101398.75;5034377;28;20060;-65
2023/08/05 00:46:49;;;;;;;5.95;1.50;;;;;;;23.84;47.04;101405.28;5034272;28;20030;-66
2023/08/05 00:49:14;;;;;;;2.28;1.85;;;;;;;23.86;46.52;101408.66;5035652;28;20033;-64
2023/08/05 00:51:40;;;;;;;3.20;1.73;;;;;;;23.83;47.07;101406.34;5035731;28;20029;-65
2023/08/05 00:54:06;;;;;;;5.93;1.80;;;;;;;23.78;46.89;101396.00;5051191;28;20041;-65
2023/08/05 00:56:31;;;;;;;5.82;2.17;;;;;;;23.80;47.16;101406.72;5050785;28;20079;-64
2023/08/05 00:58:57;;;;;;;1.92;1.75;;;;;;;23.77;47.10;101400.63;5050768;28;20037;-65
2023/08/05 01:01:22;;;;;;;1.98;1.60;;;;;;;23.76;46.93;101404.38;5035388;28;20036;-64
2023/08/05 01:03:48;;;;;;;2.90;1.92;;;;;;;23.76;46.72;101398.91;5033916;28;20084;-65
2023/08/05 01:06:14;;;;;;;4.47;2.05;;;;;;;23.72;47.27;101389.44;5033814;28;20092;-65
2023/08/05 01:08:40;;;;;;;7.18;2.20;;;;;;;23.72;47.53;101397.66;5050457;28;20041;-65
2023/08/05 01:11:05;;;;;;;4.40;1.65;;;;;;;23.70;47.52;101391.50;5033485;28;20037;-64
2023/08/05 01:13:31;;;;;;;12.88;2.00;;;;;;;23.68;47.12;101387.28;5033639;28;20044;-66
2023/08/05 01:15:56;;;;;;;5.78;2.45;;;;;;;23.65;46.99;101394.00;5035081;28;20075;-65
2023/08/05 01:18:24;;;;;;;2.25;1.48;;;;;;;23.62;47.49;101388.09;5035212;28;20045;-63
2023/08/05 01:20:54;;;;;;;6.55;1.77;;;;;;;23.58;46.78;101393.13;5033557;28;20390;-64
2023/08/05 01:23:30;;;;;;;3.65;1.95;;;;;;;23.55;46.98;101388.06;5033759;28;20086;-63
2023/08/05 01:25:55;;;;;;;4.30;1.67;;;;;;;23.50;46.98;101382.34;5033652;28;20075;-64
2023/08/05 01:28:21;;;;;;;3.30;1.98;;;;;;;23.43;47.34;101373.25;5050183;28;20029;-63
2023/08/05 01:30:47;;;;;;;3.00;2.17;;;;;;;23.40;47.67;101376.38;5033555;28;20033;-63
2023/08/05 01:33:14;;;;;;;2.40;1.63;;;;;;;23.39;47.82;101380.16;5033468;28;20128;-63
2023/08/05 01:35:47;;;;;;;2.65;1.88;;;;;;;23.32;47.36;101375.63;5017091;28;20042;-63
2023/08/05 01:38:12;;;;;;;4.03;2.15;;;;;;;23.29;47.43;101382.34;5016934;28;20405;-63
2023/08/05 01:40:37;;;;;;;4.80;2.55;;;;;;;23.26;47.70;101377.28;5032962;28;20501;-63
2023/08/05 01:43:04;;;;;;;3.05;2.15;;;;;;;23.20;47.47;101373.44;5048313;28;20037;-63
2023/08/05 01:45:29;;;;;;;3.55;1.80;;;;;;;23.17;48.08;101379.31;5033049;28;20180;-63
2023/08/05 01:47:54;;;;;;;5.45;1.90;;;;;;;23.12;47.31;101375.47;5000574;28;20370;-64
2023/08/05 01:50:20;;;;;;;5.30;1.95;;;;;;;23.09;47.56;101370.41;5033361;28;20184;-64
2023/08/05 01:52:45;;;;;;;4.00;2.20;;;;;;;23.05;47.88;101371.88;5000344;28;20030;-65
2023/08/05 01:55:10;;;;;;;4.40;1.83;;;;;;;23.03;48.13;101365.75;5017195;28;20404;-64
2023/08/05 01:57:36;;;;;;;4.28;1.75;;;;;;;23.01;47.35;101376.88;5033091;28;20026;-63
2023/08/05 02:00:01;;;;;;;4.90;1.75;;;;;;;22.97;47.73;101377.47;5033189;28;20095;-64
2023/08/05 02:02:27;;;;;;;2.33;2.00;;;;;;;22.92;48.22;101383.50;5033479;28;20489;-63
2023/08/05 02:04:52;;;;;;;5.85;2.13;;;;;;;22.89;47.86;101380.34;5032995;28;20041;-63
2023/08/05 02:07:18;;;;;;;3.13;1.75;;;;;;;22.88;47.95;101379.50;5032852;28;20029;-63
2023/08/05 02:09:43;;;;;;;5.55;1.83;;;;;;;22.84;47.49;101382.78;5033986;28;20045;-63
2023/08/05 02:12:09;;;;;;;2.75;2.10;;;;;;;22.84;47.60;101382.78;5032820;28;20052;-63
2023/08/05 02:14:35;;;;;;;4.55;2.13;;;;;;;22.80;47.55;101381.50;5033960;28;20057;-63
2023/08/05 02:17:01;;;;;;;4.95;2.22;;;;;;;22.77;47.97;101376.44;5032821;28;20025;-63
2023/08/05 02:19:26;;;;;;;7.53;2.92;;;;;;;22.77;47.93;101376.44;5032689;28;20520;-63
2023/08/05 02:21:51;;;;;;;8.18;2.20;;;;;;;22.75;47.80;101373.91;5033915;28;20408;-63
2023/08/05 02:24:17;;;;;;;3.58;2.22;;;;;;;22.74;48.51;101387.75;5033859;28;20099;-63
2023/08/05 02:26:42;;;;;;;3.40;1.95;;;;;;;22.71;48.21;101382.66;5033873;28;20038;-63
2023/08/05 02:29:08;;;;;;;6.57;2.13;;;;;;;22.70;47.80;101381.81;5033847;28;20033;-64
2023/08/05 02:31:35;;;;;;;4.05;2.13;;;;;;;22.69;47.54;101384.75;5033997;28;20117;-64
2023/08/05 02:34:00;;;;;;;2.42;1.98;;;;;;;22.68;48.61;101380.31;5016103;28;20068;-64
2023/08/05 02:36:25;;;;;;;4.13;2.30;;;;;;;22.67;47.94;101373.19;5032230;28;20029;-64
2023/08/05 02:38:51;;;;;;;4.88;2.45;;;;;;;22.65;48.55;101370.63;5032063;28;20120;-64
2023/08/05 02:41:16;;;;;;;8.27;2.88;;;;;;;22.68;47.99;101369.41;5032156;28;20488;-65
2023/08/05 02:43:43;;;;;;;2.78;1.85;;;;;;;22.68;48.19;101361.19;5016473;28;20025;-65
2023/08/05 02:46:09;;;;;;;3.47;2.20;;;;;;;22.65;48.48;101364.31;5034149;28;20033;-64
2023/08/05 02:48:34;;;;;;;3.47;1.85;;;;;;;22.66;48.09;101355.09;5033575;28;20022;-64
2023/08/05 02:51:01;;;;;;;5.90;2.33;;;;;;;22.65;48.59;101361.59;5032051;28;20541;-64
2023/08/05 02:53:28;;;;;;;3.50;2.17;;;;;;;22.65;49.07;101358.84;5015832;28;20026;-64
2023/08/05 02:55:53;;;;;;;5.75;2.45;;;;;;;22.59;48.51;101353.09;5031900;28;20029;-64
2023/08/05 02:58:19;;;;;;;4.28;2.35;;;;;;;22.61;48.03;101359.22;5015518;28;20029;-64
2023/08/05 03:00:46;;;;;;;7.72;1.95;;;;;;;22.57;49.01;101344.28;5033351;28;20040;-64
2023/08/05 03:03:12;;;;;;;4.47;2.20;;;;;;;22.57;48.61;101344.28;5033966;28;20045;-64
2023/08/05 03:05:38;;;;;;;3.65;2.20;;;;;;;22.52;48.52;101332.25;5019760;28;20095;-64
2023/08/05 03:08:03;;;;;;;7.32;1.98;;;;;;;22.51;48.33;101323.19;5036747;28;20516;-64
2023/08/05 03:10:28;;;;;;;8.30;2.25;;;;;;;22.49;48.36;101324.44;5020762;28;20497;-64
2023/08/05 03:12:55;;;;;;;3.67;2.03;;;;;;;22.47;49.30;101318.34;5021446;28;20094;-66
2023/08/05 03:15:20;;;;;;;4.28;2.72;;;;;;;22.46;48.41;101325.69;5033848;28;20101;-64
2023/08/05 03:17:46;;;;;;;4.90;2.20;;;;;;;22.43;48.32;101331.53;5031759;28;20113;-64
2023/08/05 03:20:29;;;;;;;5.28;2.97;;;;;;;22.41;48.47;101324.56;5032038;28;20029;-66
2023/08/05 03:22:55;;;;;;;7.43;2.03;;;;;;;22.39;48.90;101332.94;5033090;28;20025;-64
2023/08/05 03:25:22;;;;;;;3.10;2.25;;;;;;;22.38;49.21;101334.00;5031598;28;20464;-64
2023/08/05 03:27:49;;;;;;;3.28;2.33;;;;;;;22.37;49.40;101335.03;5032647;28;20044;-64
2023/08/05 03:30:14;;;;;;;3.58;2.58;;;;;;;22.36;48.87;101327.03;5031577;28;20520;-64
2023/08/05 03:32:40;;;;;;;4.85;2.70;;;;;;;22.34;49.12;101320.91;5031439;28;20037;-64
2023/08/05 03:35:06;;;;;;;4.60;2.33;;;;;;;22.35;49.13;101330.78;5032872;28;20041;-64
2023/08/05 03:37:31;;;;;;;4.03;2.10;;;;;;;22.35;49.00;101328.06;5031507;28;20060;-64
2023/08/05 03:39:56;;;;;;;3.47;2.58;;;;;;;22.33;49.32;101322.81;5031502;28;20116;-63
2023/08/05 03:42:22;;;;;;;5.95;2.60;;;;;;;22.34;48.68;101327.22;4998697;28;20037;-63
2023/08/05 03:44:47;;;;;;;2.90;2.20;;;;;;;22.34;48.78;101326.38;5031383;28;20029;-64
2023/08/05 03:47:13;;;;;;;2.72;2.15;;;;;;;22.31;48.95;101321.28;5032674;28;20042;-64
2023/08/05 03:49:41;;;;;;;2.75;2.10;;;;;;;22.30;49.69;101319.63;5031702;28;20452;-64
2023/08/05 03:52:07;;;;;;;6.20;2.72;;;;;;;22.29;49.47;101316.03;5032612;28;20120;-64
2023/08/05 03:54:32;;;;;;;8.18;2.38;;;;;;;22.29;49.61;101317.91;5014476;28;20132;-63
2023/08/05 03:56:59;;;;;;;4.15;2.05;;;;;;;22.25;48.91;101306.53;5031199;28;20449;-63
2023/08/05 03:59:25;;;;;;;6.13;2.28;;;;;;;22.23;49.26;101303.16;5031545;28;20033;-64
2023/08/05 04:01:51;;;;;;;3.40;2.80;;;;;;;22.20;48.87;101292.63;5015024;28;20508;-64
2023/08/05 04:04:16;;;;;;;3.08;2.28;;;;;;;22.18;48.98;101296.59;5031377;28;20041;-64
2023/08/05 04:06:42;;;;;;;3.40;2.45;;;;;;;22.18;48.43;101296.59;5032656;28;20042;-65
2023/08/05 04:09:07;;;;;;;5.82;1.90;;;;;;;22.12;48.89;101281.81;5036595;28;20112;-63
2023/08/05 04:11:33;;;;;;;6.07;2.03;;;;;;;22.10;48.46;101275.72;5036465;28;20112;-64
2023/08/05 04:13:59;;;;;;;2.45;1.90;;;;;;;22.08;48.97;101269.63;5036353;28;20124;-63
2023/08/05 04:16:25;;;;;;;7.55;2.20;;;;;;;22.04;48.67;101276.50;5035180;28;20037;-63
2023/08/05 04:18:52;;;;;;;5.60;2.10;;;;;;;22.02;48.48;101281.31;5035197;28;20113;-64
2023/08/05 04:21:17;;;;;;;3.92;2.22;;;;;;;21.97;49.35;101286.50;5019222;28;20116;-64
2023/08/05 04:23:43;;;;;;;3.22;2.20;;;;;;;21.96;49.53;101280.19;5036484;28;20493;-63
2023/08/05 04:26:09;;;;;;;7.03;2.50;;;;;;;21.95;49.00;101278.50;5036225;28;20413;-64
2023/08/05 04:28:34;;;;;;;2.97;1.70;;;;;;;21.92;49.51;101280.75;5035642;28;20034;-64
2023/08/05 04:30:59;;;;;;;4.90;2.35;;;;;;;21.91;48.46;101281.81;5018250;28;20038;-64
2023/08/05 04:33:25;;;;;;;5.43;1.95;;;;;;;21.90;48.99;101277.38;5018228;28;20037;-64
2023/08/05 04:35:51;;;;;;;2.65;2.30;;;;;;;21.89;49.57;101270.22;5034634;28;20113;-63
2023/08/05 04:38:17;;;;;;;6.70;1.98;;;;;;;21.87;48.53;101261.41;5035946;28;20527;-64
2023/08/05 04:40:42;;;;;;;3.50;2.10;;;;;;;21.88;49.46;101263.09;5034588;28;20103;-64
2023/08/05 04:43:08;;;;;;;3.80;2.42;;;;;;;21.90;49.08;101263.75;5034444;28;20037;-64
2023/08/05 04:45:34;;;;;;;2.63;2.00;;;;;;;21.89;48.82;101262.88;5034342;28;20037;-64
2023/08/05 04:48:00;;;;;;;5.47;2.38;;;;;;;21.89;49.21;101256.56;5034558;28;20172;-64
2023/08/05 04:50:25;;;;;;;4.72;2.42;;;;;;;21.91;48.99;101254.53;5017931;28;20124;-63
2023/08/05 04:52:51;;;;;;;3.97;2.30;;;;;;;21.96;48.54;101252.91;5034670;28;20036;-63
2023/08/05 04:55:16;;;;;;;4.78;2.55;;;;;;;21.97;49.33;101254.59;5034403;28;20041;-63
2023/08/05 04:57:42;;;;;;;6.40;2.53;;;;;;;21.99;50.02;101246.22;5028308;28;20035;-63
2023/08/05 05:00:08;;;;;;;4.25;2.88;;;;;;;22.02;49.39;101245.84;5034384;28;20026;-63
2023/08/05 05:02:33;;;;;;;6.25;3.03;;;;;;;22.05;49.65;101243.53;5035278;28;20095;-63
2023/08/05 05:04:59;;;;;;;7.28;2.88;;;;;;;22.04;49.13;101239.16;5035413;28;20041;-63
2023/08/05 05:07:24;;;;;;;4.72;2.42;;;;;;;22.07;49.54;101237.91;5033820;28;20225;-63
2023/08/05 05:09:50;;;;;;;4.97;2.85;;;;;;;22.12;48.96;101227.25;5017611;28;20420;-63
2023/08/05 05:12:15;;;;;;;5.90;2.60;;;;;;;22.26;49.28;101230.94;5034089;28;20040;-63
2023/08/05 05:14:45;;;;;;;6.85;2.58;;;;;;;22.30;49.34;101235.00;5035520;28;20060;-63
2023/08/05 05:17:13;;;;;;;6.57;2.97;;;;;;;22.30;49.33;101237.72;5017715;28;20116;-63
2023/08/05 05:19:38;;;;;;;4.57;2.75;;;;;;;22.30;49.17;101238.56;5033707;28;20033;-63
2023/08/05 05:22:04;;;;;;;7.97;2.67;;;;;;;22.32;49.30;101236.50;5034287;28;20095;-63
2023/08/05 05:24:29;;;;;;;5.25;3.15;;;;;;;22.33;48.70;101238.19;5035938;28;20079;-63
2023/08/05 05:26:57;;;;;;;11.68;2.65;;;;;;;22.39;49.84;101237.38;5034066;28;20516;-63
2023/08/05 05:29:23;;;;;;;15.13;3.38;;;;;;;22.44;49.59;101232.19;5034365;28;20037;-63
2023/08/05 05:31:48;;;;;;;6.47;3.35;;;;;;;22.52;48.97;101229.31;5036122;28;20029;-63
2023/08/05 05:34:13;;;;;;;4.65;3.25;;;;;;;22.64;49.05;101228.81;5034270;28;20056;-64
2023/08/05 05:36:39;;;;;;;5.22;3.30;;;;;;;22.72;49.55;101236.88;5033754;28;20040;-64
2023/08/05 05:39:04;;;;;;;8.70;4.85;;;;;;;22.90;49.43;101229.00;5035172;28;20383;-64
2023/08/05 05:41:30;;;;;;;9.77;3.60;;;;;;;22.94;49.05;101219.38;5035091;28;20037;-64
2023/08/05 05:43:56;;;;;;;6.80;3.25;;;;;;;23.00;48.58;101221.31;5035354;28;20032;-64
2023/08/05 05:46:21;;;;;;;7.25;3.47;;;;;;;23.27;49.24;101225.03;5033628;28;20115;-64
2023/08/05 05:48:47;;;;;;;5.22;3.58;;;;;;;23.48;48.08;101224.97;5033344;28;20048;-64
2023/08/05 05:51:12;;;;;;;5.72;3.70;;;;;;;23.62;48.80;101223.94;5034575;28;20030;-65
2023/08/05 05:53:38;;;;;;;5.82;3.40;;;;;;;23.82;48.89;101215.81;5033406;28;20033;-64
2023/08/05 05:56:04;;;;;;;8.25;3.42;;;;;;;23.93;48.59;101231.63;5034541;28;20038;-64
2023/08/05 05:58:33;;;;;;;4.63;3.03;;;;;;;24.11;47.92;101224.56;5034583;28;20038;-64
2023/08/05 06:01:00;;;;;;;7.45;3.35;;;;;;;24.34;47.50;101230.47;5017209;28;20034;-64
2023/08/05 06:03:25;;;;;;;7.45;3.10;;;;;;;24.59;47.82;101222.50;5033318;28;20087;-64
2023/08/05 06:05:51;;;;;;;5.80;3.47;;;;;;;24.84;47.19;101223.56;5034251;28;20447;-64
2023/08/05 06:08:16;;;;;;;8.15;3.15;;;;;;;25.13;47.31;101210.41;5026877;28;20501;-64
2023/08/05 06:10:42;;;;;;;5.32;3.22;;;;;;;25.44;46.72;101222.34;5035806;28;20049;-64
2023/08/05 06:13:08;;;;;;;14.50;3.65;;;;;;;25.79;46.70;101225.63;5034173;28;20122;-64
2023/08/05 06:15:33;;;;;;;7.20;2.97;;;;;;;25.82;46.48;101213.38;5032885;28;20434;-65
2023/08/05 06:17:58;;;;;;;5.50;3.15;;;;;;;25.78;47.29;101212.09;5032657;28;20072;-64
2023/08/05 06:20:25;;;;;;;6.07;2.38;;;;;;;25.74;47.15;101206.19;5032787;28;20030;-64
2023/08/05 06:22:51;;;;;;;3.55;2.33;;;;;;;25.68;46.91;101209.84;5033661;28;20068;-65
2023/08/05 06:25:16;;;;;;;6.72;2.55;;;;;;;25.68;46.89;101217.25;5033971;28;20460;-66
2023/08/05 06:27:42;;;;;;;9.32;2.50;;;;;;;25.67;46.66;101223.78;5033566;28;20038;-66
2023/08/05 06:30:08;;;;;;;4.90;2.75;;;;;;;25.62;46.95;101213.47;5032181;28;20034;-65
2023/08/05 06:32:33;;;;;;;4.47;2.38;;;;;;;25.59;46.63;101202.91;5033519;28;20059;-64
2023/08/05 06:34:58;;;;;;;5.32;3.00;;;;;;;25.55;46.60;101201.66;5032265;28;20104;-65
2023/08/05 06:37:24;;;;;;;12.88;2.95;;;;;;;25.51;46.54;101194.94;5032371;28;20044;-64
2023/08/05 06:39:49;;;;;;;4.88;2.60;;;;;;;25.52;46.56;101204.03;5033402;28;20047;-64
2023/08/05 06:42:15;;;;;;;6.13;3.50;;;;;;;25.50;46.68;101204.22;5032265;28;20040;-64
2023/08/05 06:44:43;;;;;;;5.13;2.80;;;;;;;25.52;46.81;101196.59;5032033;28;20041;-65
2023/08/05 06:47:08;;;;;;;5.57;3.20;;;;;;;25.51;46.37;101181.22;5033283;28;20072;-64
2023/08/05 06:49:35;;;;;;;5.97;3.00;;;;;;;25.58;46.74;101187.50;5033308;28;20029;-64
2023/08/05 06:52:00;;;;;;;3.97;2.15;;;;;;;25.61;46.33;101189.81;5048668;28;20095;-64
2023/08/05 06:54:25;;;;;;;5.63;2.90;;;;;;;25.66;47.21;101187.25;5033491;28;20401;-68
2023/08/05 06:56:52;;;;;;;3.92;2.45;;;;;;;25.71;46.65;101186.63;5031739;28;20030;-65
2023/08/05 06:59:17;;;;;;;3.08;2.25;;;;;;;25.74;45.94;101189.72;5033609;28;20029;-65
2023/08/05 07:01:43;;;;;;;5.82;2.63;;;;;;;25.81;45.78;101195.19;5015288;28;20109;-65
2023/08/05 07:04:08;;;;;;;4.35;2.10;;;;;;;25.83;45.78;101196.66;5032949;28;20519;-64
2023/08/05 07:06:33;;;;;;;4.63;2.00;;;;;;;25.81;45.93;101190.56;5031483;28;20112;-64
2023/08/05 07:09:03;;;;;;;4.13;2.20;;;;;;;25.85;45.61;101194.53;5032673;28;20054;-64
2023/08/05 07:11:28;;;;;;;3.28;2.20;;;;;;;25.94;45.80;101190.47;5032728;28;20037;-66
2023/08/05 07:13:54;;;;;;;2.78;2.38;;;;;;;26.08;45.58;101190.38;5031027;28;20037;-65
2023/08/05 07:16:19;;;;;;;2.60;2.00;;;;;;;26.20;44.75;101183.13;5033006;28;20527;-65
2023/08/05 07:18:44;;;;;;;6.60;2.40;;;;;;;26.31;45.17;101174.19;5015191;28;20050;-66
2023/08/05 07:21:10;;;;;;;7.75;2.47;;;;;;;26.52;45.27;101177.38;5015275;28;20030;-65
2023/08/05 07:23:35;;;;;;;2.22;1.90;;;;;;;26.75;45.13;101175.88;5031555;28;20033;-66
2023/08/05 07:26:01;;;;;;;3.40;1.85;;;;;;;27.04;44.63;101165.03;5032891;28;20160;-70
2023/08/05 07:28:27;;;;;;;4.82;2.00;;;;;;;27.47;43.67;101153.13;5048095;28;20052;-68
2023/08/05 07:31:10;;;;;;;2.63;1.83;;;;;;;27.93;43.79;101153.31;5031342;28;20131;-69
2023/08/05 07:33:36;;;;;;;4.20;2.30;;;;;;;28.11;42.62;101153.25;5031510;28;20044;-67
2023/08/05 07:36:12;;;;;;;6.47;2.47;;;;;;;28.39;43.26;101151.75;5031508;28;20041;-65
2023/08/05 07:38:39;;;;;;;3.70;1.67;;;;;;;28.49;43.75;101149.22;5014434;28;20075;-66
2023/08/05 07:41:06;;;;;;;3.00;2.30;;;;;;;28.54;43.33;101143.84;5014420;28;20021;-66
2023/08/05 07:43:34;;;;;;;3.25;2.33;;;;;;;28.67;43.23;101143.66;5031185;28;20112;-66
2023/08/05 07:45:59;;;;;;;2.47;1.58;;;;;;;28.83;42.11;101145.66;5031273;28;20025;-66
2023/08/05 07:48:27;;;;;;;4.63;2.58;;;;;;;28.93;42.25;101140.38;5031219;28;20025;-65
2023/08/05 07:50:52;;;;;;;3.08;2.33;;;;;;;29.12;42.33;101139.13;5032603;28;20048;-66
2023/08/05 07:53:20;;;;;;;13.82;2.90;;;;;;;29.28;41.72;101127.38;5032249;28;20060;-67
2023/08/05 07:55:46;;;;;;;3.55;2.65;;;;;;;29.51;41.19;101128.38;5031150;28;20048;-66
2023/08/05 07:58:12;;;;;;;2.33;1.65;;;;;;;29.72;41.25;101127.66;5014303;28;20025;-66
2023/08/05 08:00:39;;;;;;;4.40;2.83;;;;;;;29.89;40.78;101126.66;5032208;28;20064;-66
2023/08/05 08:03:05;;;;;;;4.43;2.03;;;;;;;30.00;40.82;101127.66;5032558;28;20033;-66
2023/08/05 08:05:30;;;;;;;3.38;1.50;;;;;;;29.97;40.79;101123.47;5014606;28;20032;-66
2023/08/05 08:07:56;;;;;;;5.47;2.53;;;;;;;30.07;40.20;101119.22;5032152;28;20026;-65
2023/08/05 08:10:24;;;;;;;2.85;2.17;;;;;;;30.22;40.39;101116.69;5030680;28;20505;-65
2023/08/05 08:12:51;;;;;;;4.35;2.35;;;;;;;30.22;39.53;101103.72;5032294;28;20025;-66
2023/08/05 08:15:16;;;;;;;3.30;1.70;;;;;;;30.61;39.57;101096.31;5031035;28;20129;-65
2023/08/05 08:17:42;;;;;;;2.63;1.92;;;;;;;30.81;39.27;101102.16;5030996;28;20045;-65
2023/08/05 08:20:07;;;;;;;3.67;1.83;;;;;;;30.89;39.44;101098.09;5030989;28;20433;-64
2023/08/05 08:22:33;;;;;;;1.77;1.63;;;;;;;30.96;39.22;101099.59;5032057;28;20392;-63
2023/08/05 08:24:58;;;;;;;5.38;1.80;;;;;;;30.97;38.82;101094.91;5031940;28;20473;-64
2023/08/05 08:27:24;;;;;;;2.53;1.50;;;;;;;30.84;38.80;101090.56;5030650;28;20053;-64
2023/08/05 08:29:49;;;;;;;4.50;1.63;;;;;;;30.84;38.46;101085.03;5030780;28;20025;-68
2023/08/05 08:32:14;;;;;;;3.40;0.95;;;;;;;30.72;38.81;101075.16;5030843;28;20028;-66
2023/08/05 08:34:40;;;;;;;2.15;1.05;;;;;;;30.70;38.25;101074.59;5031110;28;20021;-66
2023/08/05 08:37:06;;;;;;;1.70;1.20;;;;;;;30.70;38.65;101071.84;5030816;28;20101;-68
2023/08/05 08:39:31;;;;;;;2.30;1.38;;;;;;;30.79;38.41;101062.00;5032028;28;20112;-68
2023/08/05 08:41:57;;;;;;;5.43;1.25;;;;;;;30.97;38.13;101067.22;5030713;28;20057;-68
2023/08/05 08:44:22;;;;;;;3.58;1.23;;;;;;;30.93;38.08;101043.94;5030904;28;20017;-69
2023/08/05 08:46:48;;;;;;;4.00;2.03;;;;;;;30.99;38.21;101054.00;5030803;28;20029;-69
2023/08/05 08:49:16;;;;;;;2.78;0.95;;;;;;;31.02;37.62;101053.44;5014801;28;20456;-68
2023/08/05 08:51:46;;;;;;;2.60;0.88;;;;;;;30.75;38.15;101047.84;5030999;28;20037;-68
2023/08/05 08:54:13;;;;;;;1.73;0.63;;;;;;;30.63;38.08;101046.31;5035484;28;20104;-67
2023/08/05 08:56:39;;;;;;;1.10;1.00;;;;;;;30.49;38.23;101038.34;5034046;28;20470;-69
2023/08/05 08:59:04;;;;;;;0.82;0.70;;;;;;;30.19;39.16;101040.63;5035460;28;20044;-67
2023/08/05 09:01:31;;;;;;;2.47;1.05;;;;;;;30.01;38.62;101040.91;5028109;28;20037;-66
2023/08/05 09:03:58;;;;;;;1.13;0.77;;;;;;;29.73;38.44;101039.00;5034365;28;20044;-66
2023/08/05 09:06:23;;;;;;;0.70;0.63;;;;;;;29.51;38.80;101040.81;5033938;28;20120;-67
2023/08/05 09:08:50;;;;;;;4.20;0.80;;;;;;;29.32;38.77;101037.44;5033984;28;20053;-67
2023/08/05 09:11:16;;;;;;;1.85;0.73;;;;;;;29.17;38.53;101028.88;5034131;28;20493;-67
2023/08/05 09:13:42;;;;;;;1.95;0.95;;;;;;;29.07;39.19;101027.81;5034242;28;20034;-67
2023/08/05 09:16:12;;;;;;;1.67;1.10;;;;;;;29.01;38.91;101024.09;5017202;28;20032;-68
2023/08/05 09:18:51;;;;;;;2.92;1.65;;;;;;;28.90;38.87;101019.47;5033628;28;20034;-67
2023/08/05 09:21:24;;;;;;;3.60;1.40;;;;;;;28.87;38.75;101015.28;5033804;28;20409;-69
2023/08/05 09:23:49;;;;;;;2.38;1.10;;;;;;;29.19;38.66;101012.88;5033577;28;20218;-68
2023/08/05 09:26:26;;;;;;;4.13;1.52;;;;;;;29.24;38.96;101007.50;5033497;28;20489;-68
2023/08/05 09:28:51;;;;;;;4.82;1.65;;;;;;;29.17;38.84;101004.03;5033444;28;20041;-67
2023/08/05 09:31:16;;;;;;;2.85;1.60;;;;;;;29.08;39.05;101007.41;5033628;28;20057;-68
2023/08/05 09:33:42;;;;;;;8.57;2.25;;;;;;;28.97;39.16;101000.03;5033561;28;20564;-69
2023/08/05 09:36:12;;;;;;;2.25;1.10;;;;;;;28.93;38.81;100994.16;5016884;28;20040;-69
2023/08/05 09:38:39;;;;;;;2.17;1.40;;;;;;;28.85;39.17;100991.78;5033545;28;20030;-69
2023/08/05 09:41:06;;;;;;;3.17;1.65;;;;;;;28.78;39.90;100988.34;5033704;28;20033;-68
2023/08/05 09:43:34;;;;;;;1.98;0.98;;;;;;;28.57;39.35;100978.78;5034671;28;20037;-68
2023/08/05 09:46:04;;;;;;;1.30;1.20;;;;;;;28.42;39.75;100970.16;5019916;28;20112;-68
2023/08/05 09:48:38;;;;;;;1.60;1.30;;;;;;;28.29;40.42;100968.53;5023507;28;20573;-69
2023/08/05 09:51:04;;;;;;;3.28;1.60;;;;;;;28.16;40.02;100977.06;5022163;28;20034;-68
2023/08/05 09:53:33;;;;;;;2.08;1.20;;;;;;;28.09;40.24;100969.97;5021540;28;20037;-68
2023/08/05 09:55:59;;;;;;;2.17;1.60;;;;;;;28.05;39.85;100972.38;5017933;28;20116;-68
2023/08/05 09:58:24;;;;;;;1.60;1.38;;;;;;;28.01;40.21;100962.88;5035126;28;20079;-69
2023/08/05 10:00:51;;;;;;;4.00;1.55;;;;;;;28.06;40.34;100959.44;5037969;28;20550;-69
2023/08/05 10:03:19;;;;;;;1.45;1.35;;;;;;;28.16;39.99;100955.00;5034252;28;20034;-69
2023/08/05 10:05:44;;;;;;;3.33;1.33;;;;;;;28.19;40.55;100954.53;5032738;28;20033;-69
2023/08/05 10:08:11;;;;;;;1.73;1.60;;;;;;;28.24;40.64;100943.63;5016279;28;20044;-68
2023/08/05 10:10:38;;;;;;;4.15;1.70;;;;;;;28.26;39.63;100944.19;5016229;28;20052;-69
2023/08/05 10:13:08;;;;;;;2.20;1.65;;;;;;;28.34;39.77;100931.16;5032681;28;20033;-68
2023/08/05 10:15:39;;;;;;;4.18;1.55;;;;;;;28.54;40.19;100928.78;5016219;28;20038;-68
2023/08/05 10:18:09;;;;;;;5.53;1.70;;;;;;;28.74;39.54;100932.84;5016209;28;20039;-68
2023/08/05 10:20:38;;;;;;;2.85;1.40;;;;;;;28.98;39.64;100917.00;5016679;28;20049;-68
2023/08/05 10:23:06;;;;;;;3.28;1.50;;;;;;;29.20;39.58;100917.94;5033229;28;20107;-68
2023/08/05 10:25:42;;;;;;;2.40;1.77;;;;;;;29.28;39.25;100902.97;5033652;28;20034;-68
2023/08/05 10:28:08;;;;;;;2.15;1.48;;;;;;;29.51;39.17;100918.53;5048808;28;20037;-68
2023/08/05 10:30:42;;;;;;;1.50;1.40;;;;;;;29.67;39.10;100921.28;5032670;28;20018;-70
2023/08/05 10:33:07;;;;;;;2.15;1.30;;;;;;;30.12;38.34;100903.72;5033707;28;20022;-70
2023/08/05 10:35:40;;;;;;;3.85;1.88;;;;;;;30.13;38.49;100905.38;5032381;28;20052;-70
2023/08/05 10:38:18;;;;;;;3.53;1.80;;;;;;;30.00;38.96;100896.38;5032264;28;20069;-70
2023/08/05 10:41:00;;;;;;;2.28;1.33;;;;;;;29.75;39.04;100895.97;5049542;28;20026;-70
2023/08/05 10:43:30;;;;;;;1.92;1.52;;;;;;;29.52;39.26;100898.09;5032415;28;20034;-70
2023/08/05 10:46:04;;;;;;;1.70;1.55;;;;;;;29.35;39.63;100903.63;5033727;28;20040;-70
2023/08/05 10:48:34;;;;;;;2.47;1.38;;;;;;;29.42;38.75;100905.13;5033643;28;20041;-70
2023/08/05 10:51:07;;;;;;;6.63;2.13;;;;;;;29.78;38.10;100892.72;5032123;28;20029;-70
2023/08/05 10:53:32;;;;;;;2.10;1.70;;;;;;;30.58;37.65;100900.44;5031198;28;20033;-70
2023/08/05 10:55:58;;;;;;;1.42;1.30;;;;;;;31.07;37.42;100896.56;5033608;28;20030;-70
2023/08/05 10:58:27;;;;;;;1.98;1.73;;;;;;;31.01;37.45;100896.81;5015768;28;20029;-70
2023/08/05 11:01:00;;;;;;;3.78;1.85;;;;;;;31.00;37.30;100900.66;5015675;28;20092;-70
2023/08/05 11:03:44;;;;;;;4.15;1.60;;;;;;;31.21;37.37;100896.16;5032181;28;20041;-69
2023/08/05 11:06:11;;;;;;;3.40;1.40;;;;;;;31.33;37.26;100891.25;5033376;28;20150;-68
2023/08/05 11:08:38;;;;;;;4.38;1.40;;;;;;;31.82;36.28;100886.41;5031169;28;20030;-69
2023/08/05 11:11:08;;;;;;;1.20;1.02;;;;;;;31.84;36.03;100890.56;5031555;28;20072;-69
2023/08/05 11:13:35;;;;;;;3.03;1.00;;;;;;;32.03;36.70;100886.25;5015325;28;20029;-69
2023/08/05 11:16:04;;;;;;;1.35;1.23;;;;;;;32.62;35.38;100884.03;5032928;28;20034;-69
2023/08/05 11:18:31;;;;;;;5.45;1.08;;;;;;;33.33;34.37;100881.38;5031854;28;20060;-69
2023/08/05 11:20:57;;;;;;;1.10;1.00;;;;;;;33.11;34.72;100872.50;5033132;28;20513;-69